Terminal Aerodrome Forecast
Issued by NWS Buffalo, NY

Home | Current Version | Previous Version | Text Only | Print | Product List | Glossary On
Versions: 1 2 3 4 5 6 7 8 9 10 11 12 13 14 15 16 17 18 19 20 21 22 23 24 25 26
000
FTUS41 KBUF 280527
TAFROC
TAF
KROC 280527Z 2806/2906 22009KT 6SM BR VCSH OVC100
     FM280800 24009KT P6SM OVC060
     FM281000 26009KT P6SM OVC140
     FM281300 27010KT P6SM BKN150
     FM281700 31010KT P6SM FEW250
     FM282200 33006KT P6SM SKC=

USA.gov is the U.S. government's official web portal to all federal, state and local government web resources and services.